Volkel Air Base

EHVK · 北布拉班特省, 荷兰

METAR的历史 EHVK · Volkel Air Base

下面你可以看到过去几天的METARs。 选择年份以浏览从2007年开始的旧METAR。

2023年6月6日

时间 代码 天气 温度 能见度 天花板 METAR/SPECI
10:25
V
17 °C 10 km+ - 050° 050° 8 kt METAR EHVK 060825Z AUTO 05008KT 320V040 9999 NCD 17/10 Q1020 BLU NOSIG
09:55
V
16 °C 10 km+ - 040° 040° 6 kt METAR EHVK 060755Z AUTO 04006KT 320V060 9999 NCD 16/10 Q1021 BLU NOSIG
09:25
V
15 °C 10 km+ - 030° 030° 6 kt METAR EHVK 060725Z AUTO 03006KT 340V070 9999 NCD 15/10 Q1021 BLU NOSIG
08:55
V
15 °C 10 km+ - 040° 040° 7 kt METAR EHVK 060655Z AUTO 04007KT 010V080 9999 NCD 15/10 Q1021 BLU NOSIG
08:25
V
14 °C 10 km+ - 030° 030° 8 kt METAR EHVK 060625Z AUTO 03008KT 360V070 9999 NCD 14/09 Q1020 BLU NOSIG
07:55
V
13 °C 10 km+ - 030° 030° 8 kt METAR EHVK 060555Z AUTO 03008KT 350V060 9999 NCD 13/09 Q1020 BLU NOSIG
07:25
V
12 °C 10 km+ - 020° 020° 8 kt METAR EHVK 060525Z AUTO 02008KT 9999 NCD 12/09 Q1020 BLU
06:55
V
11 °C 10 km+ - 020° 020° 8 kt METAR EHVK 060455Z AUTO 02008KT 340V050 9999 NCD 11/09 Q1020 BLU
06:25
V
11 °C 10 km+ - 020° 020° 8 kt METAR EHVK 060425Z AUTO 02008KT 350V050 9999 NCD 11/08 Q1020 BLU
05:55
V
10 °C 10 km+ - 020° 020° 6 kt METAR EHVK 060355Z AUTO 02006KT 350V060 9999 NCD 10/08 Q1020 BLU
05:25
V
11 °C 10 km+ - 020° 020° 7 kt METAR EHVK 060325Z AUTO 02007KT 360V060 9999 NCD 11/08 Q1020 BLU
04:55
V
11 °C 10 km+ - 020° 020° 7 kt METAR EHVK 060255Z AUTO 02007KT 350V050 9999 NCD 11/08 Q1020 BLU
04:25
V
11 °C 10 km+ - 020° 020° 5 kt METAR EHVK 060225Z AUTO 02005KT 350V060 9999 NCD 11/09 Q1020 BLU
03:55
V
11 °C 10 km+ - 020° 020° 7 kt METAR EHVK 060155Z AUTO 02007KT 9999 NCD 11/09 Q1020 BLU
03:25
V
12 °C 10 km+ - 020° 020° 6 kt METAR EHVK 060125Z AUTO 02006KT 9999 NCD 12/09 Q1020 BLU
02:55
V
12 °C 10 km+ - 020° 020° 5 kt METAR EHVK 060055Z AUTO 02005KT 340V040 9999 NCD 12/09 Q1020 BLU
02:25
V
12 °C 10 km+ - 360° 360° 4 kt METAR EHVK 060025Z AUTO 36004KT 340V050 9999 NCD 12/10 Q1020 BLU RMK CB INFO NOT AVBL
01:55
V
13 °C 10 km+ - 010° 010° 5 kt METAR EHVK 052355Z AUTO 01005KT 340V040 9999 NCD 13/10 Q1020 BLU
01:25
V
14 °C 10 km+ - 020° 020° 6 kt METAR EHVK 052325Z AUTO 02006KT 330V040 9999 NCD 14/10 Q1020 BLU
00:55
V
14 °C 10 km+ - 020° 020° 6 kt METAR EHVK 052255Z AUTO 02006KT 350V050 9999 NCD 14/10 Q1020 BLU
00:25
V
15 °C 10 km+ - 020° 020° 7 kt METAR EHVK 052225Z AUTO 02007KT 340V040 9999 NCD 15/10 Q1020 BLU

2023年6月5日

时间 代码 天气 温度 能见度 天花板 METAR/SPECI
23:55
V
16 °C 10 km+ - 020° 020° 7 kt METAR EHVK 052155Z AUTO 02007KT 340V050 9999 NCD 16/11 Q1020 BLU
23:25
V
16 °C 10 km+ - 020° 020° 6 kt METAR EHVK 052125Z AUTO 02006KT 340V050 9999 NCD 16/11 Q1020 BLU
22:55
V
16 °C 10 km+ - 360° 360° 6 kt METAR EHVK 052055Z AUTO 36006KT 330V030 9999 NCD 16/12 Q1020 BLU
22:25
V
16 °C 10 km+ - 350° 350° 7 kt METAR EHVK 052025Z AUTO 35007KT 310V010 9999 NCD 16/12 Q1020 BLU
21:55
V
17 °C 10 km+ - 350° 350° 8 kt METAR EHVK 051955Z AUTO 35008KT 9999 NCD 17/12 Q1019 BLU
21:25
V
18 °C 10 km+ - 350° 350° 8 kt METAR EHVK 051925Z AUTO 35008KT 310V010 9999 NCD 18/12 Q1019 BLU
20:55
V
19 °C 10 km+ - 340° 340° 8 kt METAR EHVK 051855Z AUTO 34008KT 310V020 9999 NCD 19/12 Q1019 BLU
20:25
V
20 °C 10 km+ - 350° 350° 8 kt METAR EHVK 051825Z AUTO 35008KT 310V020 9999 NCD 20/12 Q1019 BLU
19:55
V
21 °C 10 km+ - 350° 350° 8 kt METAR EHVK 051755Z AUTO 35008KT 300V040 9999 NCD 21/11 Q1019 BLU
19:25
V
23 °C 10 km+ - 020° 020° 8 kt METAR EHVK 051725Z AUTO 02008KT 340V040 9999 NCD 23/08 Q1019 BLU
18:55
V
23 °C 10 km+ - 010° 010° 7 kt METAR EHVK 051655Z AUTO 01007KT 340V070 9999 NCD 23/08 Q1019 BLU
18:25
V
23 °C 10 km+ - 010° 010° 8 kt METAR EHVK 051625Z AUTO 01008KT 360V090 9999 NCD 23/07 Q1019 BLU
17:55
V
24 °C 10 km+ - 050° 050° 7 kt METAR EHVK 051555Z AUTO 05007KT 340V090 9999 NCD 24/07 Q1019 BLU
17:25
V
23 °C 10 km+ - 060° 060° 8 kt METAR EHVK 051525Z AUTO 06008KT 360V080 9999 NCD 23/08 Q1019 BLU
16:55
V
23 °C 10 km+ - 040° 040° 9 kt METAR EHVK 051455Z AUTO 04009KT 350V050 9999 NCD 23/07 Q1020 BLU
16:25
V
24 °C 10 km+ - 050° 050° 7 kt METAR EHVK 051425Z AUTO 05007KT 320V050 9999 NCD 24/08 Q1020 BLU
16:01
V
23 °C 10 km+ - 040° 040° 9 kt METAR EHVK 051401Z AUTO 04009KT 340V060 9999 NCD 23/07 Q1020 BLU
15:55
V
23 °C 10 km+ - 040° 040° 7 kt METAR EHVK 051355Z AUTO 04007KT 010V100 9999 NCD 23/06 Q1020 BLU NOSIG
15:25
V
23 °C 10 km+ - 050° 050° 9 kt METAR EHVK 051325Z AUTO 05009KT 350V090 9999 NCD 23/08 Q1020 BLU NOSIG
14:55
V
23 °C 10 km+ - 030° 030° 7 kt METAR EHVK 051255Z AUTO 03007KT 310V110 9999 NCD 23/09 Q1020 BLU NOSIG
14:25
V
23 °C 10 km+ - 040° 040° 8 kt METAR EHVK 051225Z AUTO 04008KT 320V080 9999 NCD 23/10 Q1021 BLU NOSIG
13:55
V
22 °C 10 km+ - 050° 050° 8 kt METAR EHVK 051155Z AUTO 05008KT 330V060 9999 NCD 22/10 Q1021 BLU NOSIG
13:25
V
22 °C 10 km+ - 030° 030° 7 kt METAR EHVK 051125Z AUTO 03007KT 340V070 9999 NCD 22/11 Q1021 BLU NOSIG
12:55
V
21 °C 10 km+ - 030° 030° 6 kt METAR EHVK 051055Z AUTO 03006KT 340V070 9999 NCD 21/10 Q1021 BLU NOSIG
12:25
V
20 °C 10 km+ - 050° 050° 8 kt METAR EHVK 051025Z AUTO 05008KT 360V060 9999 NCD 20/10 Q1021 BLU NOSIG
11:55
V
19 °C 10 km+ - 030° 030° 9 kt METAR EHVK 050955Z AUTO 03009KT 330V080 9999 NCD 19/10 Q1022 BLU NOSIG
11:25
V
19 °C 10 km+ - 040° 040° 8 kt METAR EHVK 050925Z AUTO 04008KT 330V070 9999 NCD 19/10 Q1022 BLU NOSIG
10:55
V
17 °C 10 km+ - 050° 050° 7 kt METAR EHVK 050855Z AUTO 05007KT 350V080 9999 NCD 17/10 Q1022 BLU NOSIG
10:25
V
16 °C 10 km+ - 040° 040° 7 kt METAR EHVK 050825Z AUTO 04007KT 320V050 9999 NCD 16/10 Q1022 BLU NOSIG
09:55
V
15 °C 10 km+ - 030° 030° 7 kt METAR EHVK 050755Z AUTO 03007KT 340V080 9999 NCD 15/09 Q1022 BLU NOSIG
09:25
V
14 °C 10 km+ - 050° 050° 8 kt METAR EHVK 050725Z AUTO 05008KT 320V060 9999 NCD 14/09 Q1022 BLU NOSIG
08:55
V
14 °C 10 km+ - 030° 030° 8 kt METAR EHVK 050655Z AUTO 03008KT 340V050 9999 NCD 14/09 Q1022 BLU NOSIG
08:25
V
13 °C 10 km+ - 020° 020° 8 kt METAR EHVK 050625Z AUTO 02008KT 9999 NCD 13/08 Q1022 BLU NOSIG
07:59
V
12 °C 10 km+ - 030° 030° 8 kt METAR EHVK 050559Z AUTO 03008KT 340V050 9999 NCD 12/08 Q1022 BLU NOSIG
07:55
V
12 °C 10 km+ - 020° 020° 8 kt METAR EHVK 050555Z AUTO 02008KT 350V060 9999 NCD 12/08 Q1022 BLU
07:25
V
12 °C 10 km+ - 020° 020° 6 kt METAR EHVK 050525Z AUTO 02006KT 350V050 9999 NCD 12/08 Q1022 BLU
06:55
V
11 °C 10 km+ - 020° 020° 6 kt METAR EHVK 050455Z AUTO 02006KT 350V050 9999 NCD 11/08 Q1022 BLU
06:25
V
11 °C 10 km+ - 020° 020° 6 kt METAR EHVK 050425Z AUTO 02006KT 9999 NCD 11/08 Q1021 BLU
05:55
V
10 °C 10 km+ - 020° 020° 5 kt METAR EHVK 050355Z AUTO 02005KT 350V050 9999 NCD 10/08 Q1022 BLU
05:25
V
10 °C 10 km+ - 020° 020° 5 kt METAR EHVK 050325Z AUTO 02005KT 9999 NCD 10/08 Q1022 BLU
04:55
V
11 °C 10 km+ - 020° 020° 5 kt METAR EHVK 050255Z AUTO 02005KT 9999 NCD 11/08 Q1022 BLU
04:25
V
11 °C 10 km+ - 020° 020° 6 kt METAR EHVK 050225Z AUTO 02006KT 350V060 9999 NCD 11/08 Q1022 BLU
03:55
V
11 °C 10 km+ - 030° 030° 6 kt METAR EHVK 050155Z AUTO 03006KT 9999 NCD 11/09 Q1022 BLU
03:25
V
12 °C 10 km+ - 020° 020° 6 kt METAR EHVK 050125Z AUTO 02006KT 360V060 9999 NCD 12/09 Q1022 BLU
02:55
V
12 °C 10 km+ - 020° 020° 7 kt METAR EHVK 050055Z AUTO 02007KT 9999 NCD 12/08 Q1022 BLU
02:25
V
12 °C 10 km+ - 020° 020° 6 kt METAR EHVK 050025Z AUTO 02006KT 9999 NCD 12/09 Q1022 BLU RMK CB INFO NOT AVBL
01:55
V
13 °C 10 km+ - 030° 030° 6 kt METAR EHVK 042355Z AUTO 03006KT 350V050 9999 NCD 13/09 Q1022 BLU
01:25
V
13 °C 10 km+ - 030° 030° 6 kt METAR EHVK 042325Z AUTO 03006KT 350V050 9999 NCD 13/09 Q1022 BLU
00:55
V
14 °C 10 km+ - 020° 020° 6 kt METAR EHVK 042255Z AUTO 02006KT 9999 NCD 14/09 Q1022 BLU
00:25
V
15 °C 10 km+ - 020° 020° 8 kt METAR EHVK 042225Z AUTO 02008KT 350V050 9999 NCD 15/09 Q1022 BLU

2023年6月4日

时间 代码 天气 温度 能见度 天花板 METAR/SPECI
23:55
V
16 °C 10 km+ - 020° 020° 8 kt METAR EHVK 042155Z AUTO 02008KT 350V050 9999 NCD 16/09 Q1022 BLU
23:25
V
16 °C 10 km+ - 020° 020° 8 kt METAR EHVK 042125Z AUTO 02008KT 350V050 9999 NCD 16/10 Q1022 BLU
22:55
V
17 °C 10 km+ - 020° 020° 8 kt METAR EHVK 042055Z AUTO 02008KT 340V060 9999 NCD 17/10 Q1021 BLU
22:25
V
18 °C 10 km+ - 020° 020° 9 kt METAR EHVK 042025Z AUTO 02009KT 350V060 9999 NCD 18/09 Q1021 BLU
21:55
V
19 °C 10 km+ - 020° 020° 8 kt METAR EHVK 041955Z AUTO 02008KT 340V050 9999 NCD 19/08 Q1021 BLU
21:25
V
20 °C 10 km+ - 020° 020° 6 kt METAR EHVK 041925Z AUTO 02006KT 350V060 9999 NCD 20/07 Q1020 BLU
20:55
V
21 °C 10 km+ - 020° 020° 5 kt METAR EHVK 041855Z AUTO 02005KT 9999 NCD 21/06 Q1020 BLU
20:25
V
22 °C 10 km+ - 030° 030° 6 kt METAR EHVK 041825Z AUTO 03006KT 350V050 9999 NCD 22/05 Q1020 BLU
19:55
V
22 °C 10 km+ - 020° 020° 7 kt METAR EHVK 041755Z AUTO 02007KT 340V050 9999 NCD 22/05 Q1020 BLU
19:25
V
23 °C 10 km+ - 020° 020° 8 kt METAR EHVK 041725Z AUTO 02008KT 350V060 9999 NCD 23/05 Q1020 BLU
18:55
V
23 °C 10 km+ - 050° 050° 9 kt METAR EHVK 041655Z AUTO 05009KT 360V070 9999 NCD 23/06 Q1020 BLU
18:25
V
23 °C 10 km+ - 020° 020° 9 kt METAR EHVK 041625Z AUTO 02009KT 330V080 9999 NCD 23/05 Q1020 BLU
17:55
V
23 °C 10 km+ - 020° 020° 8 kt METAR EHVK 041555Z AUTO 02008KT 010V070 9999 NCD 23/06 Q1021 BLU
17:25
V
24 °C 10 km+ - 020° 020° 8 kt METAR EHVK 041525Z AUTO 02008KT 350V090 9999 NCD 24/05 Q1021 BLU
16:55
V
23 °C 10 km+ - 030° 030° 8 kt METAR EHVK 041455Z AUTO 03008KT 340V100 9999 NCD 23/04 Q1021 BLU
16:25
V
23 °C 10 km+ - 030° 030° 7 kt METAR EHVK 041425Z AUTO 03007KT 350V090 9999 NCD 23/05 Q1021 BLU
15:55
V
23 °C 10 km+ 29.000 ft 040° 040° 7 kt METAR EHVK 041355Z AUTO 04007KT 340V100 9999 BKN290 23/04 Q1021 BLU
15:25
V
23 °C 10 km+ - 050° 050° 8 kt METAR EHVK 041325Z AUTO 05008KT 300V100 9999 NCD 23/05 Q1021 BLU
14:55
V
23 °C 10 km+ 30.000 ft 050° 050° 9 kt METAR EHVK 041255Z AUTO 05009KT 360V090 9999 BKN300 23/05 Q1021 BLU
14:25
V
22 °C 10 km+ - 040° 040° 10 kt METAR EHVK 041225Z AUTO 04010KT 350V070 9999 NCD 22/04 Q1022 BLU
13:55
V
22 °C 10 km+ - 020° 020° 8 kt METAR EHVK 041155Z AUTO 02008KT 320V110 9999 NCD 22/03 Q1022 BLU
13:25
V
22 °C 10 km+ - 030° 030° 9 kt METAR EHVK 041125Z AUTO 03009KT 340V070 9999 NCD 22/04 Q1022 BLU
12:55
V
21 °C 10 km+ - 030° 030° 9 kt METAR EHVK 041055Z AUTO 03009KT 350V070 9999 NCD 21/04 Q1022 BLU
12:25
V
22 °C 10 km+ - 060° 060° 9 kt METAR EHVK 041025Z AUTO 06009KT 350V100 9999 NCD 22/04 Q1022 BLU
11:55
V
21 °C 10 km+ - 060° 060° 10 kt METAR EHVK 040955Z AUTO 06010KT 010V100 9999 NCD 21/02 Q1022 BLU
11:25
V
20 °C 10 km+ - 060° 060° 7 kt METAR EHVK 040925Z AUTO 06007KT 010V070 9999 NCD 20/05 Q1022 BLU
10:55
V
20 °C 10 km+ - 050° 050° 6 kt METAR EHVK 040855Z AUTO 05006KT 330V110 9999 NCD 20/05 Q1022 BLU
10:25
V
19 °C 10 km+ - 050° 050° 6 kt METAR EHVK 040825Z AUTO 05006KT 020V080 9999 NCD 19/05 Q1022 BLU
09:55
V
18 °C 10 km+ - 060° 060° 7 kt METAR EHVK 040755Z AUTO 06007KT 350V110 9999 NCD 18/06 Q1022 BLU

我们和第三方通过cookies跟踪您在我们网站上的互联网行为。如果你继续,我们认为你同意我们的饼干政策